Terminal Aerodrome Forecast
Issued by NWS

Home | Current Version | Previous Version | Text Only | Print | Product List | Glossary On
Versions: 1 2 3 4 5 6 7 8 9 10 11 12 13 14 15 16
000
FTUS46 KLOX 022340
TAFPMD
TAF
KPMD 022340Z 0300/0324 05020G28KT P6SM SKC
     FM030200 03017G23KT P6SM SKC
     FM030500 03010KT P6SM SKC
     FM031400 07006KT P6SM SKC
     FM031800 07010KT P6SM SKC
     FM032000 05014G20KT P6SM SKC=

USA.gov is the U.S. government's official web portal to all federal, state and local government web resources and services.